Time;durP1;ratioP1;P1;durP2;ratioP2;P2;SDS_P1;SDS_P2;PMS_P1;PMS_P2;Temp;Humidity;BMP_temperature;BMP_pressure;BME280_temperature;BME280_humidity;BME280_pressure;Samples;Min_cycle;Max_cycle;Signal;HPM_P1;HPM_P2
2023/03/14 00:00:29;;;;;;;0.60;0.30;;;10.60;87.30;;;;;;5022398;28;20045;-80
2023/03/14 00:02:54;;;;;;;0.40;0.40;;;10.60;87.40;;;;;;5014032;28;20041;-81
2023/03/14 00:05:20;;;;;;;0.85;0.30;;;10.60;87.40;;;;;;5010481;28;20101;-79
2023/03/14 00:07:45;;;;;;;1.08;0.40;;;10.60;87.50;;;;;;5011845;28;20815;-79
2023/03/14 00:10:13;;;;;;;0.70;0.30;;;10.60;87.60;;;;;;4994060;28;20060;-78
2023/03/14 00:12:39;;;;;;;0.75;0.30;;;10.60;87.60;;;;;;4994625;28;20038;-79
2023/03/14 00:15:06;;;;;;;0.30;0.30;;;10.60;87.60;;;;;;5010863;28;20046;-80
2023/03/14 00:17:32;;;;;;;0.70;0.35;;;10.50;87.60;;;;;;5021060;28;20091;-79
2023/03/14 00:20:03;;;;;;;1.73;0.75;;;10.50;87.60;;;;;;5013715;28;20046;-79
2023/03/14 00:22:30;;;;;;;0.43;0.35;;;10.50;87.60;;;;;;5010279;28;20044;-78
2023/03/14 00:24:55;;;;;;;1.48;0.43;;;10.50;87.70;;;;;;4979281;28;20042;-80
2023/03/14 00:27:21;;;;;;;0.68;0.40;;;10.50;87.60;;;;;;5009715;28;20042;-78
2023/03/14 00:29:46;;;;;;;1.42;0.40;;;10.50;87.60;;;;;;5030056;28;20043;-79
2023/03/14 00:32:12;;;;;;;1.08;0.40;;;10.50;87.70;;;;;;5035284;28;20075;-79
2023/03/14 00:34:38;;;;;;;0.32;0.32;;;10.50;87.70;;;;;;5031030;28;20136;-79
2023/03/14 00:37:03;;;;;;;0.20;0.10;;;10.50;87.80;;;;;;5017260;28;20521;-80
2023/03/14 00:39:29;;;;;;;0.57;0.30;;;10.50;87.80;;;;;;5036886;28;20831;-79
2023/03/14 00:41:54;;;;;;;1.13;0.50;;;10.50;87.80;;;;;;5033751;28;20473;-80
2023/03/14 00:44:20;;;;;;;0.40;0.40;;;10.50;87.90;;;;;;5036637;28;20653;-80
2023/03/14 00:46:46;;;;;;;0.52;0.22;;;10.50;88.00;;;;;;5034071;28;20029;-78
2023/03/14 00:49:11;;;;;;;1.35;0.40;;;10.50;88.10;;;;;;5033680;28;20965;-79
2023/03/14 00:51:37;;;;;;;0.30;0.28;;;10.50;88.10;;;;;;5035110;28;20487;-80
2023/03/14 00:54:02;;;;;;;0.32;0.32;;;10.40;88.00;;;;;;5014167;28;20534;-78
2023/03/14 00:56:28;;;;;;;1.65;0.30;;;10.40;88.00;;;;;;4986504;28;20068;-79
2023/03/14 00:58:55;;;;;;;0.60;0.30;;;10.40;88.00;;;;;;5008938;28;20045;-80
2023/03/14 01:01:21;;;;;;;0.50;0.30;;;10.40;88.00;;;;;;5016500;28;20037;-79
2023/03/14 01:03:46;;;;;;;0.30;0.30;;;10.40;88.10;;;;;;4984256;28;20046;-80
2023/03/14 01:06:17;;;;;;;1.15;0.35;;;10.40;88.20;;;;;;5013364;28;20060;-78
2023/03/14 01:08:42;;;;;;;2.83;0.45;;;10.40;88.30;;;;;;4986453;28;20120;-77
2023/03/14 01:11:09;;;;;;;0.43;0.30;;;10.40;88.30;;;;;;5005953;28;20042;-79
2023/03/14 01:13:35;;;;;;;0.20;0.20;;;10.40;88.30;;;;;;4998208;28;20030;-78
2023/03/14 01:16:05;;;;;;;0.40;0.40;;;10.40;88.30;;;;;;5013311;28;20041;-79
2023/03/14 01:18:30;;;;;;;3.97;0.50;;;10.40;88.40;;;;;;5015814;28;20068;-79
2023/03/14 01:20:56;;;;;;;0.10;0.10;;;10.40;88.40;;;;;;5008857;28;20065;-79
2023/03/14 01:23:22;;;;;;;0.75;0.38;;;10.40;88.40;;;;;;4978510;28;20363;-80
2023/03/14 01:25:47;;;;;;;0.95;0.47;;;10.40;88.50;;;;;;4996089;28;20052;-81
2023/03/14 01:28:13;;;;;;;2.35;0.40;;;10.40;88.50;;;;;;4998246;28;20037;-78
2023/03/14 01:30:39;;;;;;;2.15;0.57;;;10.40;88.50;;;;;;4996868;28;20034;-81
2023/03/14 01:33:04;;;;;;;0.85;0.40;;;10.40;88.50;;;;;;4997531;28;20060;-78
2023/03/14 01:35:30;;;;;;;1.13;0.40;;;10.40;88.50;;;;;;5001200;28;20079;-81
2023/03/14 01:37:55;;;;;;;0.65;0.25;;;10.40;88.50;;;;;;5029059;28;20850;-79
2023/03/14 01:40:21;;;;;;;0.75;0.40;;;10.40;88.60;;;;;;5054063;28;20043;-80
2023/03/14 01:42:54;;;;;;;1.13;0.28;;;10.40;88.70;;;;;;5034991;28;20051;-81
2023/03/14 01:45:53;;;;;;;1.10;0.43;;;10.40;88.50;;;;;;5030963;28;20044;-80
2023/03/14 01:48:19;;;;;;;1.10;0.40;;;10.40;88.70;;;;;;5048538;28;20041;-78
2023/03/14 01:50:44;;;;;;;0.40;0.17;;;10.40;88.50;;;;;;5025087;28;20030;-78
2023/03/14 01:53:10;;;;;;;1.15;0.45;;;10.40;88.50;;;;;;5020164;28;20039;-78
2023/03/14 01:55:35;;;;;;;0.20;0.20;;;10.40;88.50;;;;;;5031922;28;20109;-80
2023/03/14 01:58:03;;;;;;;2.20;0.43;;;10.40;89.30;;;;;;5016015;28;20454;-80
2023/03/14 02:00:28;;;;;;;1.42;0.50;;;10.40;88.50;;;;;;4994440;28;20079;-78
2023/03/14 02:02:56;;;;;;;3.35;0.60;;;10.40;88.50;;;;;;5001247;28;20438;-81
2023/03/14 02:05:24;;;;;;;4.30;0.45;;;10.40;88.50;;;;;;5016232;28;20037;-81
2023/03/14 02:07:51;;;;;;;0.88;0.30;;;10.40;88.50;;;;;;5022250;28;20395;-78
2023/03/14 02:10:18;;;;;;;0.68;0.43;;;10.40;88.40;;;;;;5029015;28;20041;-80
2023/03/14 02:12:45;;;;;;;1.73;0.40;;;10.30;88.40;;;;;;5018953;28;20029;-80
2023/03/14 02:15:10;;;;;;;0.93;0.43;;;10.40;88.40;;;;;;5024812;28;20048;-80
2023/03/14 02:17:36;;;;;;;1.08;0.43;;;10.40;88.40;;;;;;5000030;28;20033;-77
2023/03/14 02:20:24;;;;;;;1.10;0.40;;;10.40;88.40;;;;;;5003198;28;20556;-79
2023/03/14 02:22:50;;;;;;;1.83;0.50;;;10.40;88.40;;;;;;5015519;28;20041;-79
2023/03/14 02:25:41;;;;;;;1.52;0.52;;;10.30;88.20;;;;;;5016874;28;20140;-79
2023/03/14 02:28:06;;;;;;;1.80;0.45;;;10.40;88.40;;;;;;5001299;28;20052;-79
2023/03/14 02:30:32;;;;;;;4.03;0.50;;;10.40;88.20;;;;;;5029911;28;20033;-80
2023/03/14 02:33:05;;;;;;;1.13;0.50;;;10.30;88.50;;;;;;5012618;28;20064;-78
2023/03/14 02:35:49;;;;;;;2.58;0.60;;;10.30;88.20;;;;;;5000360;28;20064;-78
2023/03/14 02:38:15;;;;;;;3.08;0.47;;;10.30;88.30;;;;;;5028264;28;20055;-79
2023/03/14 02:40:40;;;;;;;2.25;0.60;;;10.40;88.20;;;;;;5031365;28;20574;-80
2023/03/14 02:43:06;;;;;;;1.58;0.85;;;10.40;88.30;;;;;;5037130;28;20047;-78
2023/03/14 02:45:33;;;;;;;2.17;0.82;;;10.30;88.20;;;;;;5042655;28;20030;-78
2023/03/14 02:48:02;;;;;;;1.17;0.30;;;10.30;88.20;;;;;;5028000;28;20040;-78
2023/03/14 02:50:29;;;;;;;1.50;0.35;;;10.30;88.10;;;;;;5013171;28;20562;-79
2023/03/14 02:52:54;;;;;;;1.20;0.60;;;10.30;88.00;;;;;;5032169;28;20041;-80
2023/03/14 02:55:23;;;;;;;1.20;0.65;;;10.30;88.00;;;;;;5039558;28;20029;-79
2023/03/14 02:57:48;;;;;;;0.88;0.47;;;10.30;88.00;;;;;;5036651;28;20025;-79
2023/03/14 03:00:14;;;;;;;0.80;0.50;;;10.30;88.00;;;;;;5020819;28;20033;-79
2023/03/14 03:02:40;;;;;;;0.75;0.40;;;10.30;88.00;;;;;;5000663;28;20037;-78
2023/03/14 03:05:06;;;;;;;1.45;0.60;;;10.30;88.00;;;;;;5032505;28;20067;-78
2023/03/14 03:07:31;;;;;;;2.50;0.70;;;10.30;88.00;;;;;;5034288;28;20122;-80
2023/03/14 03:09:57;;;;;;;4.53;0.60;;;10.30;88.00;;;;;;5027407;28;20041;-81
2023/03/14 03:12:22;;;;;;;1.80;0.55;;;10.30;88.00;;;;;;5016226;28;20041;-78
2023/03/14 03:14:48;;;;;;;2.85;0.60;;;10.30;88.00;;;;;;5033995;28;20063;-79
2023/03/14 03:17:13;;;;;;;1.33;0.50;;;10.30;87.90;;;;;;5033565;28;23345;-79
2023/03/14 03:19:39;;;;;;;1.00;0.45;;;10.30;87.90;;;;;;5032322;28;20413;-80
2023/03/14 03:22:04;;;;;;;0.77;0.70;;;10.30;88.00;;;;;;5030134;28;20029;-79
2023/03/14 03:24:30;;;;;;;2.65;0.90;;;10.30;88.00;;;;;;5020401;28;20048;-80
2023/03/14 03:26:55;;;;;;;1.25;0.40;;;10.30;87.90;;;;;;5011561;28;20051;-80
2023/03/14 03:29:21;;;;;;;1.17;0.60;;;10.20;87.90;;;;;;5006377;28;20038;-79
2023/03/14 03:31:46;;;;;;;1.88;0.50;;;10.20;87.90;;;;;;5000752;28;20037;-79
2023/03/14 03:34:12;;;;;;;1.75;0.38;;;10.20;88.00;;;;;;5031784;28;20723;-78
2023/03/14 03:36:38;;;;;;;1.25;0.50;;;10.20;88.00;;;;;;5010721;28;20518;-80
2023/03/14 03:39:04;;;;;;;0.43;0.40;;;10.30;88.10;;;;;;5014616;28;20041;-80
2023/03/14 03:41:30;;;;;;;0.93;0.40;;;10.30;88.10;;;;;;5030840;28;20146;-79
2023/03/14 03:43:56;;;;;;;1.75;0.40;;;10.20;88.00;;;;;;5011238;28;20523;-79
2023/03/14 03:46:21;;;;;;;5.13;0.70;;;10.30;88.00;;;;;;5018527;28;20040;-78
2023/03/14 03:48:47;;;;;;;0.85;0.40;;;10.30;88.00;;;;;;5028552;28;20801;-80
2023/03/14 03:51:15;;;;;;;3.28;0.60;;;10.30;88.00;;;;;;5034118;28;20734;-80
2023/03/14 03:53:41;;;;;;;3.88;0.60;;;10.30;88.00;;;;;;5010826;28;20448;-79
2023/03/14 03:56:08;;;;;;;1.65;0.68;;;10.30;88.00;;;;;;5012559;28;20029;-79
2023/03/14 03:58:33;;;;;;;0.57;0.50;;;10.30;88.00;;;;;;5028123;28;20032;-78
2023/03/14 04:00:59;;;;;;;1.52;0.50;;;10.30;88.00;;;;;;5010036;28;20044;-80
2023/03/14 04:03:25;;;;;;;0.60;0.40;;;10.30;87.90;;;;;;5015869;28;20045;-78
2023/03/14 04:06:02;;;;;;;1.88;0.47;;;10.30;87.90;;;;;;5027597;28;20037;-80
2023/03/14 04:08:27;;;;;;;0.85;0.40;;;10.30;88.00;;;;;;5018073;28;20041;-81
2023/03/14 04:10:59;;;;;;;3.03;0.70;;;10.30;88.00;;;;;;5010301;28;20056;-80
2023/03/14 04:13:25;;;;;;;4.30;0.75;;;10.30;88.00;;;;;;5031925;28;20684;-77
2023/03/14 04:15:51;;;;;;;1.40;0.40;;;10.30;88.00;;;;;;5015312;28;20475;-79
2023/03/14 04:18:17;;;;;;;1.23;0.52;;;10.30;87.90;;;;;;5015931;28;20577;-78
2023/03/14 04:20:42;;;;;;;1.58;0.40;;;10.30;87.80;;;;;;5011056;28;20064;-78
2023/03/14 04:23:08;;;;;;;1.65;0.45;;;10.30;87.80;;;;;;5030110;28;20073;-82
2023/03/14 04:25:33;;;;;;;4.00;0.60;;;10.30;87.80;;;;;;5031188;28;20033;-79
2023/03/14 04:27:59;;;;;;;1.65;0.50;;;10.30;87.80;;;;;;5015887;28;20044;-79
2023/03/14 04:30:24;;;;;;;5.97;0.75;;;10.30;87.70;;;;;;5004245;28;20044;-81
2023/03/14 04:32:50;;;;;;;0.70;0.47;;;10.30;87.70;;;;;;5021078;28;20033;-80
2023/03/14 04:35:15;;;;;;;0.90;0.77;;;10.30;87.70;;;;;;5032179;28;20828;-79
2023/03/14 04:37:43;;;;;;;2.70;0.60;;;10.30;87.60;;;;;;5015600;28;20167;-81
2023/03/14 04:40:09;;;;;;;1.48;0.50;;;10.30;87.60;;;;;;5037534;28;20034;-80
2023/03/14 04:42:34;;;;;;;2.58;0.73;;;10.30;87.50;;;;;;5023088;28;20030;-79
2023/03/14 04:45:00;;;;;;;1.58;0.40;;;10.30;87.50;;;;;;5015867;28;20628;-78
2023/03/14 04:47:26;;;;;;;3.25;0.93;;;10.30;88.30;;;;;;5025656;28;20583;-80
2023/03/14 04:49:51;;;;;;;2.28;0.50;;;10.30;87.50;;;;;;4980618;28;20056;-80
2023/03/14 04:52:17;;;;;;;2.42;1.05;;;10.30;87.50;;;;;;5015087;28;21535;-82
2023/03/14 04:54:42;;;;;;;3.88;1.50;;;10.30;87.50;;;;;;4999150;28;20160;-81
2023/03/14 04:57:08;;;;;;;3.53;2.08;;;10.30;87.50;;;;;;4983630;28;20049;-80
2023/03/14 04:59:34;;;;;;;0.73;0.52;;;10.20;87.50;;;;;;5012956;28;20172;-78
2023/03/14 05:01:59;;;;;;;5.95;2.22;;;10.20;87.50;;;;;;5008416;28;20033;-79
2023/03/14 05:04:25;;;;;;;3.95;1.50;;;10.20;87.50;;;;;;5002867;28;20040;-80
2023/03/14 05:06:50;;;;;;;6.20;2.83;;;10.20;87.50;;;;;;4989218;28;20034;-81
2023/03/14 05:09:16;;;;;;;5.35;3.55;;;10.20;87.50;;;;;;5002328;28;20099;-80
2023/03/14 05:11:42;;;;;;;3.55;1.60;;;10.20;87.40;;;;;;5003182;28;20045;-80
2023/03/14 05:14:07;;;;;;;2.40;1.17;;;10.20;87.50;;;;;;5019840;28;20041;-80
2023/03/14 05:16:33;;;;;;;3.35;1.73;;;10.20;87.40;;;;;;5011262;28;20040;-79
2023/03/14 05:18:58;;;;;;;1.90;1.00;;;10.20;87.30;;;;;;5022247;28;20045;-79
2023/03/14 05:21:24;;;;;;;2.42;0.80;;;10.20;87.30;;;;;;5008400;28;20045;-79
2023/03/14 05:23:49;;;;;;;1.88;0.77;;;10.10;87.20;;;;;;5015508;28;20041;-79
2023/03/14 05:26:16;;;;;;;0.88;0.60;;;10.10;87.20;;;;;;5018661;28;20095;-80
2023/03/14 05:28:42;;;;;;;2.80;0.57;;;10.10;87.20;;;;;;5018679;28;20195;-81
2023/03/14 05:31:08;;;;;;;1.10;0.43;;;10.10;87.30;;;;;;5021847;28;20064;-80
2023/03/14 05:33:34;;;;;;;1.45;0.55;;;10.10;87.30;;;;;;5022773;28;20120;-80
2023/03/14 05:35:59;;;;;;;5.13;1.02;;;10.10;87.30;;;;;;5003850;28;20063;-80
2023/03/14 05:38:25;;;;;;;4.18;0.60;;;10.10;87.30;;;;;;4988411;28;20026;-79
2023/03/14 05:40:50;;;;;;;3.47;0.63;;;10.10;87.30;;;;;;5014899;28;20038;-78
2023/03/14 05:43:16;;;;;;;4.88;0.82;;;10.10;87.30;;;;;;5000621;28;20080;-80
2023/03/14 05:45:42;;;;;;;1.33;0.40;;;10.00;87.20;;;;;;4998904;28;20861;-78
2023/03/14 05:48:07;;;;;;;1.30;0.50;;;10.00;87.20;;;;;;4999334;28;20025;-78
2023/03/14 05:50:33;;;;;;;0.90;0.68;;;10.00;87.10;;;;;;5009377;28;20029;-79
2023/03/14 05:52:58;;;;;;;1.17;0.60;;;10.00;87.10;;;;;;5009686;28;20149;-79
2023/03/14 05:55:24;;;;;;;3.70;0.90;;;10.00;87.10;;;;;;5016767;28;20030;-79
2023/03/14 05:57:50;;;;;;;3.30;0.70;;;10.00;87.00;;;;;;5016452;28;20060;-80
2023/03/14 06:00:16;;;;;;;1.05;0.60;;;10.00;87.00;;;;;;4994677;28;20112;-79
2023/03/14 06:02:41;;;;;;;1.30;0.77;;;10.00;87.00;;;;;;4986917;28;20101;-78
2023/03/14 06:05:07;;;;;;;5.82;1.25;;;10.00;86.90;;;;;;4998259;28;20463;-80
2023/03/14 06:07:32;;;;;;;2.88;1.30;;;10.00;87.30;;;;;;4985632;28;20468;-80
2023/03/14 06:09:58;;;;;;;4.85;0.57;;;10.00;86.80;;;;;;5012994;28;20029;-77
2023/03/14 06:12:24;;;;;;;1.45;0.55;;;10.00;86.80;;;;;;5001104;28;20084;-78
2023/03/14 06:14:49;;;;;;;1.42;0.43;;;10.10;86.80;;;;;;5015855;28;20054;-79
2023/03/14 06:17:15;;;;;;;1.52;0.52;;;10.10;86.80;;;;;;5022152;28;20116;-79
2023/03/14 06:19:40;;;;;;;3.42;0.88;;;10.10;86.70;;;;;;5018207;28;20069;-78
2023/03/14 06:22:06;;;;;;;2.40;0.55;;;10.10;86.70;;;;;;5010748;28;20073;-78
2023/03/14 06:24:31;;;;;;;1.98;0.77;;;10.10;86.70;;;;;;5006005;28;20369;-80
2023/03/14 06:26:57;;;;;;;2.45;0.55;;;10.10;86.60;;;;;;5017620;28;20709;-77
2023/03/14 06:29:22;;;;;;;1.13;0.40;;;10.10;86.50;;;;;;5006307;28;20047;-80
2023/03/14 06:31:48;;;;;;;2.17;0.70;;;10.10;86.50;;;;;;5017107;28;20041;-77
2023/03/14 06:34:13;;;;;;;1.02;0.60;;;10.10;86.40;;;;;;5015906;28;20688;-80
2023/03/14 06:36:39;;;;;;;2.33;0.90;;;10.10;86.30;;;;;;4996965;28;20439;-80
2023/03/14 06:39:05;;;;;;;1.52;0.50;;;10.20;86.30;;;;;;5010129;28;20388;-78
2023/03/14 06:41:30;;;;;;;1.92;0.60;;;10.20;86.20;;;;;;5015795;28;20033;-81
2023/03/14 06:43:56;;;;;;;1.15;0.50;;;10.20;86.10;;;;;;5020642;28;20444;-79
2023/03/14 06:46:23;;;;;;;4.10;1.38;;;10.20;86.10;;;;;;4985618;28;20137;-80
2023/03/14 06:48:48;;;;;;;2.50;0.88;;;10.20;86.10;;;;;;4995461;28;20124;-78
2023/03/14 06:51:14;;;;;;;3.13;1.35;;;10.20;86.10;;;;;;5040457;28;20056;-79
2023/03/14 06:53:39;;;;;;;3.35;1.67;;;10.20;86.00;;;;;;5016042;28;20037;-79
2023/03/14 06:56:05;;;;;;;4.95;2.38;;;10.20;85.80;;;;;;4994810;28;20483;-81
2023/03/14 06:58:31;;;;;;;9.85;3.08;;;10.20;85.90;;;;;;5033629;28;20034;-80
2023/03/14 07:00:57;;;;;;;6.20;3.30;;;10.20;85.80;;;;;;5015703;28;20748;-78
2023/03/14 07:03:22;;;;;;;8.80;4.22;;;10.30;85.80;;;;;;5035209;28;20033;-80
2023/03/14 07:05:48;;;;;;;4.93;2.15;;;10.30;85.60;;;;;;5026962;28;20057;-76
2023/03/14 07:08:13;;;;;;;3.13;1.10;;;10.30;85.60;;;;;;5000822;28;20033;-78
2023/03/14 07:10:39;;;;;;;0.70;0.43;;;10.30;85.50;;;;;;5009566;28;20041;-82
2023/03/14 07:13:04;;;;;;;3.50;0.70;;;10.30;85.40;;;;;;4997399;28;20064;-77
2023/03/14 07:15:30;;;;;;;2.30;0.55;;;10.30;85.30;;;;;;5013510;28;20044;-80
2023/03/14 07:17:56;;;;;;;1.48;0.70;;;10.40;85.30;;;;;;4984849;28;20033;-80
2023/03/14 07:20:21;;;;;;;1.88;0.75;;;10.40;85.30;;;;;;4996333;28;20686;-81
2023/03/14 07:22:49;;;;;;;1.33;0.73;;;10.40;85.40;;;;;;5014465;28;20037;-79
2023/03/14 07:25:14;;;;;;;1.70;0.63;;;10.40;85.30;;;;;;4997702;28;20124;-78
2023/03/14 07:27:40;;;;;;;3.80;0.90;;;10.50;85.30;;;;;;5002405;28;20125;-82
2023/03/14 07:30:06;;;;;;;2.20;0.50;;;10.50;85.20;;;;;;5001806;28;20126;-80
2023/03/14 07:32:31;;;;;;;4.28;1.10;;;10.50;85.10;;;;;;5032912;28;20101;-80
2023/03/14 07:34:57;;;;;;;3.75;1.20;;;10.50;85.00;;;;;;4999681;28;20263;-80
2023/03/14 07:37:23;;;;;;;4.05;0.80;;;10.50;84.90;;;;;;5032429;28;20036;-78
2023/03/14 07:39:48;;;;;;;4.88;1.52;;;10.60;85.00;;;;;;5000037;28;20033;-79
2023/03/14 07:42:14;;;;;;;3.58;1.33;;;10.60;84.90;;;;;;5024571;28;20728;-79
2023/03/14 07:44:39;;;;;;;1.27;0.60;;;10.60;84.90;;;;;;5036347;28;20652;-79
2023/03/14 07:47:05;;;;;;;1.30;0.30;;;10.60;84.90;;;;;;5020380;28;20055;-79
2023/03/14 07:49:30;;;;;;;2.38;0.38;;;10.60;84.80;;;;;;5010905;28;20567;-80
2023/03/14 07:51:56;;;;;;;1.55;0.50;;;10.70;84.80;;;;;;4996090;28;20041;-79
2023/03/14 07:54:22;;;;;;;0.60;0.30;;;10.70;84.80;;;;;;5019416;28;20250;-79
2023/03/14 07:56:48;;;;;;;1.48;0.32;;;10.70;84.80;;;;;;5033196;28;20041;-78
2023/03/14 07:59:13;;;;;;;1.63;0.47;;;10.70;84.70;;;;;;5020230;28;20040;-78
2023/03/14 08:01:39;;;;;;;2.03;0.43;;;10.70;84.80;;;;;;5031804;28;20419;-81
2023/03/14 08:04:04;;;;;;;2.15;0.50;;;10.70;84.80;;;;;;4992570;28;20389;-80
2023/03/14 08:06:30;;;;;;;1.35;0.30;;;10.80;84.90;;;;;;5017634;28;21073;-79
2023/03/14 08:08:55;;;;;;;1.58;0.38;;;10.80;85.00;;;;;;5026626;28;20082;-79
2023/03/14 08:11:21;;;;;;;1.88;0.60;;;10.80;85.10;;;;;;5030789;28;20683;-80
2023/03/14 08:13:49;;;;;;;2.50;0.52;;;10.80;85.10;;;;;;5037002;28;20535;-80
2023/03/14 08:16:16;;;;;;;1.45;0.30;;;10.80;85.10;;;;;;5001166;28;20110;-78
2023/03/14 08:18:42;;;;;;;2.20;0.57;;;10.80;86.00;;;;;;5009818;28;20037;-81
2023/03/14 08:21:07;;;;;;;1.52;0.50;;;10.80;85.50;;;;;;5028858;28;20040;-79
2023/03/14 08:23:33;;;;;;;3.25;0.82;;;10.80;85.30;;;;;;5026073;28;20100;-80
2023/03/14 08:25:58;;;;;;;1.83;0.60;;;10.80;85.30;;;;;;5019616;28;20040;-80
2023/03/14 08:28:24;;;;;;;2.58;0.93;;;10.80;85.30;;;;;;5018582;28;20069;-81
2023/03/14 08:30:50;;;;;;;3.97;1.65;;;10.80;85.40;;;;;;5024916;28;20103;-80
2023/03/14 08:33:15;;;;;;;3.72;1.50;;;10.80;85.40;;;;;;5032111;28;20036;-79
2023/03/14 08:35:41;;;;;;;5.00;2.35;;;10.80;85.40;;;;;;5012586;28;20046;-78
2023/03/14 08:38:07;;;;;;;1.30;0.70;;;10.90;85.50;;;;;;5019292;28;20038;-79
2023/03/14 08:40:32;;;;;;;3.33;0.88;;;10.80;85.40;;;;;;4997390;28;20049;-81
2023/03/14 08:42:58;;;;;;;2.40;1.13;;;10.80;85.40;;;;;;5021813;28;20583;-81
2023/03/14 08:45:24;;;;;;;1.23;0.45;;;10.80;85.30;;;;;;5017221;28;20029;-79
2023/03/14 08:47:50;;;;;;;2.35;0.60;;;10.90;85.30;;;;;;5022925;28;20091;-80
2023/03/14 08:50:16;;;;;;;1.77;0.57;;;10.90;85.20;;;;;;5018794;28;20037;-82
2023/03/14 08:52:41;;;;;;;4.10;0.65;;;10.90;85.10;;;;;;4998700;28;20681;-81
2023/03/14 08:55:08;;;;;;;1.10;0.50;;;10.90;85.20;;;;;;4997173;28;20065;-79
2023/03/14 08:57:34;;;;;;;2.58;0.65;;;11.00;85.10;;;;;;4995929;28;20045;-78
2023/03/14 08:59:59;;;;;;;0.70;0.40;;;11.00;85.10;;;;;;5000167;28;20040;-80
2023/03/14 09:02:25;;;;;;;1.35;0.73;;;11.00;85.10;;;;;;5001441;28;20041;-78
2023/03/14 09:04:51;;;;;;;2.40;0.57;;;11.00;85.00;;;;;;5016379;28;20123;-81
2023/03/14 09:07:17;;;;;;;0.98;0.68;;;11.00;85.00;;;;;;5038307;28;20044;-78
2023/03/14 09:09:42;;;;;;;2.35;0.75;;;11.10;85.00;;;;;;5012897;28;20160;-80
2023/03/14 09:12:08;;;;;;;3.08;0.77;;;11.10;85.10;;;;;;5012021;28;20045;-81
2023/03/14 09:14:33;;;;;;;2.20;1.13;;;11.10;85.00;;;;;;5001844;28;20042;-80
2023/03/14 09:16:59;;;;;;;3.20;1.35;;;11.10;85.20;;;;;;4994356;28;20108;-78
2023/03/14 09:19:24;;;;;;;3.50;1.15;;;11.20;85.20;;;;;;4998324;28;20049;-80
2023/03/14 09:21:50;;;;;;;2.15;0.90;;;11.20;85.20;;;;;;5019222;28;20044;-80
2023/03/14 09:24:16;;;;;;;0.88;0.40;;;11.30;85.40;;;;;;5019871;28;20037;-80
2023/03/14 09:26:42;;;;;;;2.45;1.08;;;11.40;85.40;;;;;;5024765;28;20143;-77
2023/03/14 09:29:07;;;;;;;1.23;0.50;;;11.40;85.30;;;;;;4999709;28;20173;-78
2023/03/14 09:31:33;;;;;;;2.78;0.80;;;11.50;85.20;;;;;;5014082;28;20065;-81
2023/03/14 09:33:58;;;;;;;0.93;0.40;;;11.50;85.20;;;;;;4999970;28;20203;-82
2023/03/14 09:36:24;;;;;;;1.50;0.52;;;11.60;85.20;;;;;;5029094;28;20554;-82
2023/03/14 09:38:49;;;;;;;1.92;0.43;;;11.60;85.90;;;;;;5026902;28;20203;-78
2023/03/14 09:41:21;;;;;;;2.15;0.40;;;11.60;85.10;;;;;;5016011;28;20093;-79
2023/03/14 09:43:47;;;;;;;0.82;0.60;;;11.60;85.10;;;;;;5008963;28;20068;-79
2023/03/14 09:46:12;;;;;;;4.70;0.98;;;11.70;85.10;;;;;;4995792;28;20404;-80
2023/03/14 09:48:38;;;;;;;3.83;0.90;;;11.70;85.10;;;;;;5000885;28;20133;-81
2023/03/14 09:51:06;;;;;;;2.08;0.90;;;11.70;85.00;;;;;;4987161;28;20111;-81
2023/03/14 09:53:47;;;;;;;1.85;0.82;;;11.70;85.00;;;;;;5008313;28;20071;-80
2023/03/14 09:56:23;;;;;;;4.70;1.60;;;11.70;85.00;;;;;;5027713;28;20775;-81
2023/03/14 09:59:03;;;;;;;4.00;1.10;;;11.70;85.10;;;;;;5036896;28;20098;-80
2023/03/14 10:01:30;;;;;;;1.60;1.10;;;11.70;85.20;;;;;;5017074;28;20037;-79
2023/03/14 10:03:57;;;;;;;4.68;1.70;;;11.70;85.20;;;;;;5009708;28;20771;-81
2023/03/14 10:06:25;;;;;;;2.42;1.25;;;11.70;85.20;;;;;;5023158;28;20041;-80
2023/03/14 10:08:52;;;;;;;3.40;1.20;;;11.80;85.30;;;;;;5020109;28;20044;-79
2023/03/14 10:11:18;;;;;;;1.52;0.68;;;11.90;85.40;;;;;;5017566;28;20049;-79
2023/03/14 10:14:04;;;;;;;3.13;0.50;;;12.00;85.20;;;;;;5024605;28;20044;-79
2023/03/14 10:16:31;;;;;;;0.75;0.30;;;12.10;85.20;;;;;;5014368;28;20033;-79
2023/03/14 10:19:04;;;;;;;1.33;0.30;;;12.20;85.30;;;;;;4995607;28;20824;-78
2023/03/14 10:21:30;;;;;;;2.40;0.55;;;12.30;85.20;;;;;;5023734;28;20460;-80
2023/03/14 10:24:08;;;;;;;1.52;0.30;;;12.40;84.90;;;;;;4999861;28;20117;-80
2023/03/14 10:26:34;;;;;;;2.40;0.32;;;12.50;84.60;;;;;;4982636;28;20037;-80
2023/03/14 10:29:07;;;;;;;3.33;0.43;;;12.50;84.40;;;;;;4998411;28;20041;-80
2023/03/14 10:31:54;;;;;;;2.22;1.20;;;12.50;84.10;;;;;;5014922;28;20524;-81
2023/03/14 10:34:31;;;;;;;2.15;0.80;;;12.50;84.00;;;;;;5015502;28;20052;-81
2023/03/14 10:37:07;;;;;;;2.35;1.30;;;12.40;84.00;;;;;;4979961;28;20052;-79
2023/03/14 10:39:50;;;;;;;2.78;1.00;;;12.50;84.10;;;;;;5011820;28;20427;-81
2023/03/14 10:42:29;;;;;;;2.80;1.40;;;12.40;84.00;;;;;;5001402;28;20040;-79
2023/03/14 10:44:56;;;;;;;3.15;0.90;;;12.40;84.00;;;;;;5005776;28;20689;-79
2023/03/14 10:47:23;;;;;;;3.05;0.60;;;12.40;84.00;;;;;;5019212;28;20072;-80
2023/03/14 10:49:48;;;;;;;1.98;1.00;;;12.40;84.00;;;;;;4994926;28;20105;-79
2023/03/14 10:52:18;;;;;;;2.28;1.33;;;12.40;84.00;;;;;;5029913;28;20439;-80
2023/03/14 10:54:46;;;;;;;1.60;0.50;;;12.40;84.10;;;;;;4997478;28;21407;-78
2023/03/14 10:57:12;;;;;;;4.72;1.58;;;12.40;84.10;;;;;;5014158;28;20048;-76
2023/03/14 10:59:39;;;;;;;1.35;1.00;;;12.40;84.20;;;;;;4998753;28;20041;-79
2023/03/14 11:02:34;;;;;;;1.80;0.60;;;12.40;84.10;;;;;;5022487;28;20041;-79
2023/03/14 11:05:26;;;;;;;1.63;0.50;;;12.50;84.10;;;;;;5017038;28;20048;-78
2023/03/14 11:07:53;;;;;;;0.82;0.57;;;12.40;83.90;;;;;;5038996;28;20045;-80
2023/03/14 11:10:40;;;;;;;2.05;1.10;;;12.50;83.90;;;;;;5025284;28;20041;-81
2023/03/14 11:13:16;;;;;;;0.77;0.50;;;12.50;84.00;;;;;;5011317;28;20033;-81
2023/03/14 11:15:50;;;;;;;1.77;0.55;;;12.50;84.00;;;;;;4998080;28;20072;-79
2023/03/14 11:18:39;;;;;;;0.88;0.40;;;12.50;83.90;;;;;;5037085;28;20040;-82
2023/03/14 11:21:36;;;;;;;2.60;0.60;;;12.50;84.10;;;;;;5008062;28;20124;-81
2023/03/14 11:24:13;;;;;;;1.25;0.52;;;12.50;84.10;;;;;;5038530;28;20087;-79
2023/03/14 11:26:45;;;;;;;0.93;0.63;;;12.50;84.10;;;;;;5007630;28;20067;-78
2023/03/14 11:29:43;;;;;;;;;;;12.50;84.20;;;;;;5037345;28;20127;-80
2023/03/14 11:32:13;;;;;;;2.20;0.50;;;12.50;84.20;;;;;;5016159;28;21280;-80
2023/03/14 11:34:40;;;;;;;1.65;0.68;;;12.40;84.20;;;;;;4983786;28;20176;-79
2023/03/14 11:37:17;;;;;;;3.55;1.38;;;12.50;84.30;;;;;;4997834;28;20049;-77
2023/03/14 11:39:46;;;;;;;2.08;0.90;;;12.50;84.50;;;;;;5030812;28;20048;-78
2023/03/14 11:42:15;;;;;;;2.83;1.08;;;12.50;84.50;;;;;;5006538;28;20045;-80
2023/03/14 11:44:40;;;;;;;1.40;0.63;;;12.50;84.50;;;;;;5022511;28;20451;-79
2023/03/14 11:47:20;;;;;;;1.60;1.10;;;12.50;84.60;;;;;;5019016;28;20036;-81
2023/03/14 11:49:52;;;;;;;1.40;0.98;;;12.50;84.60;;;;;;4996909;28;20045;-80
2023/03/14 11:52:31;;;;;;;;;;;12.50;84.70;;;;;;4994571;28;20042;-81
2023/03/14 11:55:10;;;;;;;1.45;1.00;;;12.50;84.60;;;;;;5006411;28;19955;-81
2023/03/14 11:57:36;;;;;;;1.23;0.50;;;12.50;84.70;;;;;;4996740;28;20658;-78
2023/03/14 12:00:19;;;;;;;0.63;0.40;;;12.50;84.70;;;;;;5014992;28;20095;-78
2023/03/14 12:03:12;;;;;;;0.95;0.40;;;12.50;84.90;;;;;;4997720;28;20487;-78
2023/03/14 12:05:37;;;;;;;0.30;0.28;;;12.50;85.10;;;;;;5019458;28;20098;-80
2023/03/14 12:08:09;;;;;;;0.45;0.30;;;12.50;84.90;;;;;;5033319;28;20457;-80
2023/03/14 12:10:41;;;;;;;0.57;0.30;;;12.50;84.90;;;;;;5029042;28;20072;-81
2023/03/14 12:13:10;;;;;;;1.38;0.30;;;12.40;84.80;;;;;;5009702;28;20037;-79
2023/03/14 12:15:38;;;;;;;2.28;0.40;;;12.50;84.80;;;;;;4996853;28;20052;-80
2023/03/14 12:18:04;;;;;;;1.25;0.52;;;12.50;84.80;;;;;;5000137;28;20688;-79
2023/03/14 12:20:29;;;;;;;0.95;0.50;;;12.40;84.80;;;;;;5009735;28;20038;-81
2023/03/14 12:23:02;;;;;;;0.88;0.60;;;12.40;85.00;;;;;;5030564;28;20030;-80
2023/03/14 12:25:29;;;;;;;1.35;0.93;;;12.40;85.00;;;;;;5026045;28;20205;-79
2023/03/14 12:27:54;;;;;;;1.17;0.40;;;12.40;85.10;;;;;;5004512;28;20044;-79
2023/03/14 12:30:36;;;;;;;0.45;0.25;;;12.30;85.10;;;;;;5016440;28;20037;-82
2023/03/14 12:33:17;;;;;;;0.40;0.40;;;12.30;85.20;;;;;;5019536;28;20048;-81
2023/03/14 12:35:43;;;;;;;2.03;1.83;;;12.30;85.20;;;;;;5037990;28;20053;-79
2023/03/14 12:38:29;;;;;;;1.05;0.70;;;12.20;85.10;;;;;;5022582;28;20171;-78
2023/03/14 12:41:39;;;;;;;5.45;1.58;;;12.20;85.30;;;;;;5019413;28;20048;-79
2023/03/14 12:44:29;;;;;;;2.95;0.77;;;12.10;85.30;;;;;;5032824;28;20108;-81
2023/03/14 12:47:19;;;;;;;7.55;3.65;;;12.10;85.30;;;;;;5023656;28;20044;-79
2023/03/14 12:49:49;;;;;;;2.88;1.48;;;12.00;85.30;;;;;;5023699;28;20029;-80
2023/03/14 12:52:21;;;;;;;10.23;4.95;;;12.00;85.40;;;;;;5017527;28;20049;-81